createdAt,value
2018-05-29T00:00:18.795Z,19.10
2018-05-29T00:02:46.239Z,19.00
2018-05-29T00:05:13.702Z,19.00
2018-05-29T00:07:41.141Z,19.00
2018-05-29T00:10:08.618Z,19.00
2018-05-29T00:12:36.061Z,19.10
2018-05-29T00:15:03.509Z,19.00
2018-05-29T00:17:30.965Z,19.00
2018-05-29T00:19:58.440Z,18.80
2018-05-29T00:22:25.885Z,18.80
2018-05-29T00:24:53.345Z,18.70
2018-05-29T00:27:20.792Z,18.80
2018-05-29T00:29:49.023Z,18.60
2018-05-29T00:32:16.478Z,18.50
2018-05-29T00:34:43.929Z,18.50
2018-05-29T00:37:11.377Z,18.40
2018-05-29T00:39:39.058Z,18.40
2018-05-29T00:42:06.502Z,18.30
2018-05-29T00:44:33.958Z,18.20
2018-05-29T00:47:01.405Z,18.10
2018-05-29T00:49:28.849Z,18.10
2018-05-29T00:51:56.303Z,18.10
2018-05-29T00:54:23.747Z,18.20
2018-05-29T00:56:51.203Z,18.20
2018-05-29T00:59:18.660Z,18.20
2018-05-29T01:01:46.121Z,18.10
2018-05-29T01:04:13.586Z,18.10
2018-05-29T01:06:41.070Z,18.10
2018-05-29T01:09:08.534Z,18.00
2018-05-29T01:11:35.984Z,18.00
2018-05-29T01:14:03.427Z,18.10
2018-05-29T01:16:30.910Z,18.00
2018-05-29T01:18:58.360Z,18.00
2018-05-29T01:21:25.822Z,17.90
2018-05-29T01:23:53.278Z,17.90
2018-05-29T01:26:20.735Z,17.90
2018-05-29T01:28:48.198Z,17.80
2018-05-29T01:31:15.649Z,17.80
2018-05-29T01:33:43.130Z,17.80
2018-05-29T01:36:10.582Z,17.80
2018-05-29T01:38:38.091Z,17.80
2018-05-29T01:41:05.516Z,17.70
2018-05-29T01:43:33.751Z,17.70
2018-05-29T01:46:01.214Z,17.70
2018-05-29T01:48:29.475Z,17.60
2018-05-29T01:50:56.891Z,17.60
2018-05-29T01:53:25.113Z,17.40
2018-05-29T01:55:52.588Z,17.40
2018-05-29T01:58:20.034Z,17.40
2018-05-29T02:00:47.482Z,17.30
2018-05-29T02:03:14.925Z,17.30
2018-05-29T02:05:42.386Z,17.20
2018-05-29T02:08:09.835Z,17.20
2018-05-29T02:10:37.288Z,17.20
2018-05-29T02:13:04.733Z,17.30
2018-05-29T02:15:32.205Z,17.20
2018-05-29T02:17:59.650Z,17.10
2018-05-29T02:20:27.107Z,17.00
2018-05-29T02:22:54.573Z,16.90
2018-05-29T02:25:22.033Z,16.90
2018-05-29T02:27:49.477Z,16.80
2018-05-29T02:30:16.938Z,16.90
2018-05-29T02:32:44.391Z,16.90
2018-05-29T02:35:11.850Z,17.00
2018-05-29T02:37:39.302Z,17.00
2018-05-29T02:40:06.761Z,17.00
2018-05-29T02:42:34.247Z,17.00
2018-05-29T02:45:01.713Z,17.10
2018-05-29T02:47:29.159Z,17.00
2018-05-29T02:49:56.623Z,17.00
2018-05-29T02:52:24.080Z,17.00
2018-05-29T02:54:51.552Z,17.00
2018-05-29T02:57:18.975Z,17.00
2018-05-29T02:59:46.428Z,16.90
2018-05-29T03:02:13.889Z,16.90
2018-05-29T03:04:41.342Z,17.00
2018-05-29T03:07:08.821Z,16.90
2018-05-29T03:09:36.281Z,16.70
2018-05-29T03:12:03.726Z,16.50
2018-05-29T03:14:31.173Z,16.70
2018-05-29T03:16:58.624Z,16.70
2018-05-29T03:19:26.090Z,16.70
2018-05-29T03:21:53.540Z,16.70
2018-05-29T03:24:21.010Z,16.80
2018-05-29T03:26:48.557Z,16.80
2018-05-29T03:29:16.627Z,16.90
2018-05-29T03:31:44.093Z,16.90
2018-05-29T03:34:11.545Z,16.90
2018-05-29T03:36:38.997Z,16.90
2018-05-29T03:39:06.441Z,16.70
2018-05-29T03:41:33.891Z,16.70
2018-05-29T03:44:01.351Z,16.70
2018-05-29T03:46:29.577Z,16.80
2018-05-29T03:48:57.030Z,16.80
2018-05-29T03:51:24.513Z,17.00
2018-05-29T03:53:51.937Z,17.20
2018-05-29T03:56:19.394Z,17.50
2018-05-29T03:58:46.874Z,17.80
2018-05-29T04:01:14.331Z,18.00
2018-05-29T04:03:41.769Z,18.20
2018-05-29T04:06:09.226Z,18.30
2018-05-29T04:08:36.686Z,18.20
2018-05-29T04:11:04.136Z,18.20
2018-05-29T04:13:31.587Z,18.40
2018-05-29T04:15:59.041Z,18.60
2018-05-29T04:18:26.494Z,18.80
2018-05-29T04:20:53.934Z,18.90
2018-05-29T04:23:21.388Z,19.10
2018-05-29T04:25:48.828Z,19.30
2018-05-29T04:28:17.051Z,19.70
2018-05-29T04:30:44.505Z,19.70
2018-05-29T04:33:11.967Z,19.80
2018-05-29T04:35:39.419Z,20.00
2018-05-29T04:38:06.885Z,19.90
2018-05-29T04:40:34.344Z,19.80
2018-05-29T04:43:01.802Z,19.80
2018-05-29T04:45:29.258Z,20.00
2018-05-29T04:47:56.710Z,20.10
2018-05-29T04:50:24.169Z,20.20
2018-05-29T04:52:51.615Z,20.40
2018-05-29T04:55:19.067Z,20.60
2018-05-29T04:57:46.517Z,20.80
2018-05-29T05:00:13.994Z,20.90
2018-05-29T05:02:41.445Z,21.00
2018-05-29T05:05:09.661Z,21.00
2018-05-29T05:07:37.101Z,21.00
2018-05-29T05:10:04.561Z,21.20
2018-05-29T05:12:32.026Z,21.30
2018-05-29T05:14:59.473Z,21.30
2018-05-29T05:17:26.931Z,21.60
2018-05-29T05:19:54.381Z,21.70
2018-05-29T05:22:21.833Z,21.70
2018-05-29T05:24:49.282Z,21.80
2018-05-29T05:27:16.739Z,21.80
2018-05-29T05:29:44.191Z,21.70
2018-05-29T05:32:11.659Z,21.70
2018-05-29T05:34:39.103Z,21.80
2018-05-29T05:37:06.562Z,21.80
2018-05-29T05:39:34.013Z,22.00
2018-05-29T05:42:01.468Z,22.00
2018-05-29T05:44:28.910Z,22.00
2018-05-29T05:46:56.378Z,22.00
2018-05-29T05:49:23.831Z,22.10
2018-05-29T05:51:51.282Z,22.10
2018-05-29T05:54:18.730Z,22.10
2018-05-29T05:56:46.185Z,22.10
2018-05-29T05:59:13.647Z,22.20
2018-05-29T06:01:41.096Z,22.20
2018-05-29T06:04:08.547Z,22.30
2018-05-29T06:06:36.775Z,22.50
2018-05-29T06:09:05.164Z,22.50
2018-05-29T06:11:32.614Z,22.60
2018-05-29T06:14:00.074Z,22.70
2018-05-29T06:16:27.562Z,22.80
2018-05-29T06:18:54.969Z,23.00
2018-05-29T06:21:22.427Z,23.00
2018-05-29T06:23:49.874Z,23.20
2018-05-29T06:26:17.335Z,23.30
2018-05-29T06:28:44.783Z,23.40
2018-05-29T06:31:12.247Z,23.50
2018-05-29T06:33:39.695Z,23.50
2018-05-29T06:36:07.149Z,23.60
2018-05-29T06:38:34.598Z,23.60
2018-05-29T06:41:02.050Z,23.60
2018-05-29T06:43:29.498Z,23.70
2018-05-29T06:45:57.727Z,23.70
2018-05-29T06:48:25.184Z,23.70
2018-05-29T06:50:52.624Z,23.80
2018-05-29T06:53:20.084Z,23.90
2018-05-29T06:55:47.525Z,24.00
2018-05-29T06:58:14.983Z,24.30
2018-05-29T07:00:42.437Z,24.30
2018-05-29T07:03:09.901Z,24.50
2018-05-29T07:05:37.347Z,24.70
2018-05-29T07:08:04.811Z,24.80
2018-05-29T07:10:33.027Z,24.50
2018-05-29T07:13:00.479Z,24.50
2018-05-29T07:15:27.930Z,24.50
2018-05-29T07:17:55.384Z,24.40
2018-05-29T07:20:22.854Z,24.40
2018-05-29T07:22:50.298Z,24.50
2018-05-29T07:25:17.759Z,24.50
2018-05-29T07:27:45.213Z,24.60
2018-05-29T07:30:12.679Z,24.60
2018-05-29T07:32:40.129Z,24.60
2018-05-29T07:35:07.584Z,24.70
2018-05-29T07:37:35.044Z,24.80
2018-05-29T07:40:02.490Z,24.90
2018-05-29T07:42:29.951Z,24.90
2018-05-29T07:44:57.412Z,25.00
2018-05-29T07:47:24.872Z,25.10
2018-05-29T07:49:52.313Z,25.30
2018-05-29T07:52:19.766Z,25.30
2018-05-29T07:54:47.205Z,25.40
2018-05-29T07:57:14.665Z,25.60
2018-05-29T07:59:42.111Z,25.60
2018-05-29T08:02:09.553Z,25.70
2018-05-29T08:04:37.783Z,25.60
2018-05-29T08:07:05.234Z,25.60
2018-05-29T08:09:32.710Z,25.40
2018-05-29T08:12:00.157Z,25.40
2018-05-29T08:14:27.625Z,25.10
2018-05-29T08:16:55.088Z,24.90
2018-05-29T08:19:22.547Z,24.90
2018-05-29T08:21:49.989Z,24.70
2018-05-29T08:24:17.454Z,24.80
2018-05-29T08:26:44.894Z,24.90
2018-05-29T08:29:12.366Z,25.20
2018-05-29T08:31:39.844Z,25.50
2018-05-29T08:34:07.302Z,25.70
2018-05-29T08:36:35.514Z,26.00
2018-05-29T08:39:02.970Z,26.00
2018-05-29T08:41:30.474Z,25.90
2018-05-29T08:43:57.945Z,26.00
2018-05-29T08:46:25.415Z,25.90
2018-05-29T08:48:52.849Z,25.80
2018-05-29T08:51:20.312Z,25.70
2018-05-29T08:53:47.760Z,25.60
2018-05-29T08:56:15.212Z,25.60
2018-05-29T08:58:42.661Z,25.60
2018-05-29T09:01:10.164Z,25.60
2018-05-29T09:03:38.398Z,25.40
2018-05-29T09:06:05.845Z,25.40
2018-05-29T09:08:33.303Z,25.40
2018-05-29T09:11:00.758Z,25.40
2018-05-29T09:13:28.211Z,25.30
2018-05-29T09:15:55.676Z,25.30
2018-05-29T09:18:23.115Z,25.20
2018-05-29T09:20:50.577Z,25.30
2018-05-29T09:23:18.039Z,25.20
2018-05-29T09:25:45.491Z,25.40
2018-05-29T09:28:12.946Z,25.40
2018-05-29T09:30:40.399Z,25.30
2018-05-29T09:33:07.861Z,25.40
2018-05-29T09:35:35.339Z,25.40
2018-05-29T09:38:02.786Z,25.50
2018-05-29T09:40:30.319Z,25.40
2018-05-29T09:42:57.765Z,25.30
2018-05-29T09:45:25.231Z,25.30
2018-05-29T09:47:52.775Z,25.20
2018-05-29T09:50:20.991Z,25.20
2018-05-29T09:52:48.496Z,25.10
2018-05-29T09:55:16.669Z,25.30
2018-05-29T09:57:44.897Z,25.30
2018-05-29T10:00:12.361Z,25.30
2018-05-29T10:02:39.802Z,25.50
2018-05-29T10:05:07.253Z,25.70
2018-05-29T10:07:34.699Z,25.80
2018-05-29T10:10:02.165Z,25.90
2018-05-29T10:12:29.606Z,25.90
2018-05-29T10:14:57.053Z,26.00
2018-05-29T10:17:24.514Z,26.20
2018-05-29T10:19:51.978Z,26.20
2018-05-29T10:22:19.425Z,26.20
2018-05-29T10:24:46.878Z,26.50
2018-05-29T10:27:15.093Z,26.50
2018-05-29T10:29:42.554Z,26.50
2018-05-29T10:32:10.002Z,26.60
2018-05-29T10:34:37.448Z,26.80
2018-05-29T10:37:04.903Z,26.80
2018-05-29T10:39:32.342Z,26.90
2018-05-29T10:41:59.800Z,27.10
2018-05-29T10:44:27.237Z,27.20
2018-05-29T10:46:55.455Z,27.40
2018-05-29T10:49:22.908Z,27.40
2018-05-29T10:51:50.365Z,27.50
2018-05-29T10:54:17.830Z,27.80
2018-05-29T10:56:46.487Z,28.10
2018-05-29T10:59:14.727Z,28.20
2018-05-29T11:01:42.143Z,28.10
2018-05-29T11:04:09.613Z,28.10
2018-05-29T11:06:37.069Z,28.20
2018-05-29T11:09:04.510Z,28.10
2018-05-29T11:11:31.970Z,28.00
2018-05-29T11:13:59.425Z,27.70
2018-05-29T11:16:26.899Z,27.90
2018-05-29T11:18:54.361Z,27.90
2018-05-29T11:21:21.822Z,28.00
2018-05-29T11:23:49.284Z,27.90
2018-05-29T11:26:16.754Z,27.90
2018-05-29T11:28:44.970Z,28.10
2018-05-29T11:31:12.426Z,28.10
2018-05-29T11:33:39.885Z,28.10
2018-05-29T11:36:07.330Z,28.20
2018-05-29T11:38:35.553Z,28.00
2018-05-29T11:41:03.038Z,28.10
2018-05-29T11:43:30.496Z,27.90
2018-05-29T11:45:57.960Z,27.90
2018-05-29T11:48:26.186Z,27.90
2018-05-29T11:50:53.634Z,27.90
2018-05-29T11:53:21.102Z,27.90
2018-05-29T11:55:49.569Z,27.80
2018-05-29T11:58:17.017Z,27.90
2018-05-29T12:00:44.462Z,27.70
2018-05-29T12:03:11.918Z,27.40
2018-05-29T12:05:39.383Z,27.20
2018-05-29T12:08:06.834Z,27.10
2018-05-29T12:10:34.297Z,27.10
2018-05-29T12:13:01.756Z,26.90
2018-05-29T12:15:29.217Z,26.70
2018-05-29T12:17:56.678Z,26.80
2018-05-29T12:20:24.149Z,26.80
2018-05-29T12:22:51.629Z,26.90
2018-05-29T12:25:19.092Z,26.80
2018-05-29T12:27:46.550Z,26.80
2018-05-29T12:30:14.007Z,27.00
2018-05-29T12:32:41.457Z,27.00
2018-05-29T12:35:08.907Z,26.90
2018-05-29T12:37:36.384Z,27.00
2018-05-29T12:40:03.820Z,27.20
2018-05-29T12:42:31.277Z,27.30
2018-05-29T12:44:58.747Z,27.20
2018-05-29T12:47:26.202Z,27.10
2018-05-29T12:49:53.657Z,27.10
2018-05-29T12:52:21.102Z,27.10
2018-05-29T12:54:48.560Z,27.20
2018-05-29T12:57:16.008Z,27.20
2018-05-29T12:59:43.468Z,27.20
2018-05-29T13:02:10.927Z,27.20
2018-05-29T13:04:38.382Z,27.10
2018-05-29T13:07:05.842Z,27.30
2018-05-29T13:09:33.300Z,27.40
2018-05-29T13:12:00.747Z,27.50
2018-05-29T13:14:28.202Z,27.60
2018-05-29T13:16:55.671Z,27.70
2018-05-29T13:19:23.121Z,27.80
2018-05-29T13:21:50.573Z,28.10
2018-05-29T13:24:18.041Z,28.40
2018-05-29T13:26:45.490Z,28.70
2018-05-29T13:29:12.950Z,28.80
2018-05-29T13:31:40.410Z,29.00
2018-05-29T13:34:07.856Z,29.00
2018-05-29T13:36:35.312Z,28.80
2018-05-29T13:39:02.762Z,28.70
2018-05-29T13:41:30.225Z,28.50
2018-05-29T13:43:57.682Z,28.50
2018-05-29T13:46:25.167Z,28.50
2018-05-29T13:48:52.617Z,28.50
2018-05-29T13:51:20.070Z,28.30
2018-05-29T13:53:47.524Z,28.20
2018-05-29T13:56:14.994Z,28.20
2018-05-29T13:58:42.448Z,28.10
2018-05-29T14:01:09.921Z,28.10
2018-05-29T14:03:37.379Z,28.20
2018-05-29T14:06:04.829Z,28.30
2018-05-29T14:08:32.286Z,28.50
2018-05-29T14:10:59.762Z,28.40
2018-05-29T14:13:27.222Z,28.10
2018-05-29T14:15:54.674Z,28.20
2018-05-29T14:18:22.133Z,28.40
2018-05-29T14:20:49.591Z,28.40
2018-05-29T14:23:17.030Z,28.30
2018-05-29T14:25:44.498Z,28.30
2018-05-29T14:28:11.951Z,28.40
2018-05-29T14:30:39.410Z,28.40
2018-05-29T14:33:06.855Z,28.50
2018-05-29T14:35:34.306Z,28.50
2018-05-29T14:38:03.726Z,28.30
2018-05-29T14:40:31.176Z,28.50
2018-05-29T14:42:58.635Z,28.80
2018-05-29T14:45:26.078Z,29.30
2018-05-29T14:47:53.543Z,29.20
2018-05-29T14:50:20.994Z,29.20
2018-05-29T14:52:48.444Z,29.20
2018-05-29T14:55:15.878Z,29.20
2018-05-29T14:57:43.333Z,29.30
2018-05-29T15:00:10.793Z,29.40
2018-05-29T15:02:38.252Z,29.20
2018-05-29T15:05:05.705Z,29.20
2018-05-29T15:07:33.167Z,29.20
2018-05-29T15:10:00.618Z,29.40
2018-05-29T15:12:28.065Z,29.80
2018-05-29T15:14:55.529Z,29.80
2018-05-29T15:17:22.980Z,29.60
2018-05-29T15:19:50.439Z,29.40
2018-05-29T15:22:17.889Z,29.40
2018-05-29T15:24:45.464Z,29.20
2018-05-29T15:27:12.902Z,29.30
2018-05-29T15:29:40.355Z,29.50
2018-05-29T15:32:08.573Z,29.30
2018-05-29T15:34:36.022Z,29.30
2018-05-29T15:37:03.486Z,29.30
2018-05-29T15:39:30.925Z,29.30
2018-05-29T15:41:58.381Z,29.50
2018-05-29T15:44:25.834Z,29.50
2018-05-29T15:46:53.306Z,29.40
2018-05-29T15:49:20.744Z,30.60
2018-05-29T15:51:48.185Z,32.30
2018-05-29T15:54:15.642Z,32.30
2018-05-29T15:56:43.856Z,32.50
2018-05-29T15:59:11.303Z,32.50
2018-05-29T16:01:39.350Z,33.80
2018-05-29T16:04:06.822Z,35.00
2018-05-29T16:06:34.301Z,35.10
2018-05-29T16:09:01.752Z,36.20
2018-05-29T16:11:29.198Z,36.40
2018-05-29T16:13:58.694Z,37.00
2018-05-29T16:16:28.406Z,38.80
2018-05-29T16:18:55.938Z,38.80
2018-05-29T16:21:24.154Z,38.80
2018-05-29T16:23:51.618Z,38.70
2018-05-29T16:26:19.073Z,39.60
2018-05-29T16:28:46.518Z,39.90
2018-05-29T16:31:13.995Z,39.70
2018-05-29T16:33:41.490Z,38.90
2018-05-29T16:36:08.949Z,39.30
2018-05-29T16:38:36.393Z,39.30
2018-05-29T16:41:03.847Z,39.70
2018-05-29T16:43:31.297Z,40.10
2018-05-29T16:45:58.754Z,38.50
2018-05-29T16:48:26.193Z,35.70
2018-05-29T16:50:53.649Z,34.90
2018-05-29T16:53:26.660Z,34.60
2018-05-29T16:55:59.126Z,34.30
2018-05-29T16:58:26.901Z,33.50
2018-05-29T17:00:54.349Z,34.50
2018-05-29T17:03:21.797Z,33.60
2018-05-29T17:05:49.375Z,32.60
2018-05-29T17:08:16.833Z,33.00
2018-05-29T17:10:44.285Z,33.60
2018-05-29T17:13:11.750Z,32.80
2018-05-29T17:15:39.188Z,32.00
2018-05-29T17:18:06.643Z,31.30
2018-05-29T17:20:34.102Z,30.40
2018-05-29T17:23:01.581Z,29.70
2018-05-29T17:25:29.027Z,29.30
2018-05-29T17:27:56.481Z,29.10
2018-05-29T17:30:23.930Z,28.80
2018-05-29T17:32:51.384Z,28.50
2018-05-29T17:35:18.833Z,28.40
2018-05-29T17:37:46.288Z,28.10
2018-05-29T17:40:13.739Z,27.80
2018-05-29T17:42:41.184Z,27.60
2018-05-29T17:45:08.664Z,27.40
2018-05-29T17:47:36.199Z,27.30
2018-05-29T17:50:03.646Z,27.10
2018-05-29T17:52:31.102Z,27.00
2018-05-29T17:54:58.549Z,26.80
2018-05-29T17:57:25.993Z,26.70
2018-05-29T17:59:54.204Z,26.50
2018-05-29T18:02:21.665Z,26.40
2018-05-29T18:04:49.121Z,26.40
2018-05-29T18:07:16.584Z,26.30
2018-05-29T18:09:44.026Z,26.20
2018-05-29T18:12:11.490Z,27.30
2018-05-29T18:14:38.953Z,27.30
2018-05-29T18:17:06.433Z,27.00
2018-05-29T18:19:33.920Z,26.60
2018-05-29T18:22:02.134Z,26.30
2018-05-29T18:24:29.586Z,26.30
2018-05-29T18:26:57.042Z,26.60
2018-05-29T18:29:24.509Z,26.50
2018-05-29T18:31:52.802Z,26.10
2018-05-29T18:34:20.253Z,25.90
2018-05-29T18:36:47.718Z,25.80
2018-05-29T18:39:15.157Z,25.70
2018-05-29T18:41:42.625Z,25.60
2018-05-29T18:44:10.087Z,25.60
2018-05-29T18:46:37.521Z,25.60
2018-05-29T18:49:05.043Z,25.50
2018-05-29T18:51:32.446Z,25.40
2018-05-29T18:53:59.912Z,25.40
2018-05-29T18:56:27.357Z,25.30
2018-05-29T18:58:54.811Z,25.20
2018-05-29T19:01:22.266Z,25.20
2018-05-29T19:03:49.713Z,25.20
2018-05-29T19:06:17.165Z,25.10
2018-05-29T19:08:44.616Z,25.00
2018-05-29T19:11:12.834Z,24.90
2018-05-29T19:13:40.275Z,24.90
2018-05-29T19:16:07.730Z,24.80
2018-05-29T19:18:35.184Z,24.70
2018-05-29T19:21:02.658Z,24.60
2018-05-29T19:23:30.114Z,24.50
2018-05-29T19:25:57.582Z,24.30
2018-05-29T19:28:25.031Z,24.20
2018-05-29T19:30:52.511Z,24.00
2018-05-29T19:33:19.969Z,23.90
2018-05-29T19:35:47.422Z,23.80
2018-05-29T19:38:14.863Z,23.70
2018-05-29T19:40:42.326Z,23.60
2018-05-29T19:43:09.802Z,23.50
2018-05-29T19:45:37.242Z,23.40
2018-05-29T19:48:04.690Z,23.40
2018-05-29T19:50:32.139Z,23.30
2018-05-29T19:52:59.586Z,23.20
2018-05-29T19:55:27.042Z,23.10
2018-05-29T19:57:54.506Z,23.10
2018-05-29T20:00:22.031Z,23.00
2018-05-29T20:02:49.498Z,23.00
2018-05-29T20:05:16.978Z,23.00
2018-05-29T20:07:44.425Z,22.90
2018-05-29T20:10:11.892Z,22.80
2018-05-29T20:12:39.341Z,22.80
2018-05-29T20:15:06.795Z,22.70
2018-05-29T20:17:34.238Z,22.70
2018-05-29T20:20:01.748Z,22.70
2018-05-29T20:22:29.143Z,22.70
2018-05-29T20:24:57.374Z,22.70
2018-05-29T20:27:24.817Z,22.70
2018-05-29T20:29:52.264Z,22.70
2018-05-29T20:32:19.719Z,22.60
2018-05-29T20:34:47.169Z,22.50
2018-05-29T20:37:14.640Z,22.40
2018-05-29T20:39:42.089Z,22.40
2018-05-29T20:42:09.541Z,22.40
2018-05-29T20:44:37.013Z,22.40
2018-05-29T20:47:04.466Z,22.40
2018-05-29T20:49:32.818Z,22.30
2018-05-29T20:52:00.283Z,22.30
2018-05-29T20:54:27.733Z,22.20
2018-05-29T20:56:55.182Z,22.10
2018-05-29T20:59:22.642Z,22.10
2018-05-29T21:01:50.857Z,22.10
2018-05-29T21:04:18.313Z,22.10
2018-05-29T21:06:46.547Z,22.10
2018-05-29T21:09:14.754Z,22.10
2018-05-29T21:11:42.201Z,22.00
2018-05-29T21:14:10.281Z,22.10
2018-05-29T21:16:38.561Z,22.00
2018-05-29T21:19:06.022Z,22.00
2018-05-29T21:21:33.465Z,22.00
2018-05-29T21:24:00.923Z,22.00
2018-05-29T21:26:28.373Z,21.90
2018-05-29T21:28:55.826Z,21.70
2018-05-29T21:31:23.294Z,21.70
2018-05-29T21:33:50.747Z,21.70
2018-05-29T21:36:18.208Z,21.60
2018-05-29T21:38:45.653Z,21.50
2018-05-29T21:41:13.115Z,21.40
2018-05-29T21:43:40.558Z,21.30
2018-05-29T21:46:08.042Z,21.10
2018-05-29T21:48:35.513Z,20.90
2018-05-29T21:51:02.969Z,20.80
2018-05-29T21:53:30.501Z,20.60
2018-05-29T21:55:57.937Z,20.50
2018-05-29T21:58:26.171Z,20.40
2018-05-29T22:00:53.627Z,20.40
2018-05-29T22:03:21.097Z,20.40
2018-05-29T22:05:48.674Z,20.40
2018-05-29T22:08:17.017Z,20.40
2018-05-29T22:10:44.467Z,20.40
2018-05-29T22:13:11.935Z,20.30
2018-05-29T22:15:39.381Z,20.20
2018-05-29T22:18:06.855Z,20.10
2018-05-29T22:20:34.352Z,20.20
2018-05-29T22:23:02.600Z,20.20
2018-05-29T22:25:30.049Z,20.20
2018-05-29T22:27:57.508Z,20.10
2018-05-29T22:30:24.988Z,20.00
2018-05-29T22:32:52.421Z,19.90
2018-05-29T22:35:19.889Z,19.80
2018-05-29T22:37:47.358Z,19.80
2018-05-29T22:40:15.579Z,19.70
2018-05-29T22:42:43.043Z,19.70
2018-05-29T22:45:10.490Z,19.70
2018-05-29T22:47:37.986Z,19.80
2018-05-29T22:50:05.447Z,19.80
2018-05-29T22:52:33.413Z,19.80
2018-05-29T22:55:00.864Z,19.80
2018-05-29T22:57:28.328Z,19.80
2018-05-29T22:59:55.806Z,19.70
2018-05-29T23:02:24.038Z,19.70
2018-05-29T23:04:51.514Z,19.70
2018-05-29T23:07:19.030Z,19.70
2018-05-29T23:09:46.478Z,19.70
2018-05-29T23:12:13.937Z,19.60
2018-05-29T23:14:41.454Z,19.60
2018-05-29T23:17:08.864Z,19.60
2018-05-29T23:19:36.323Z,19.60
2018-05-29T23:22:03.782Z,19.60
2018-05-29T23:24:31.242Z,19.60
2018-05-29T23:26:58.693Z,19.60
2018-05-29T23:29:26.147Z,19.60
2018-05-29T23:31:53.599Z,19.60
2018-05-29T23:34:21.068Z,19.50
2018-05-29T23:36:48.521Z,19.50
2018-05-29T23:39:15.994Z,19.50
2018-05-29T23:41:43.441Z,19.50
2018-05-29T23:44:10.895Z,19.50
2018-05-29T23:46:38.347Z,19.50
2018-05-29T23:49:06.629Z,19.50
2018-05-29T23:51:34.081Z,19.50
2018-05-29T23:54:01.531Z,19.40
2018-05-29T23:56:28.982Z,19.40
2018-05-29T23:58:56.432Z,19.30
